createdAt,value
2022-08-24T00:00:41.182Z,2.35
2022-08-24T00:03:34.708Z,2.90
2022-08-24T00:06:23.867Z,2.45
2022-08-24T00:09:12.045Z,2.50
2022-08-24T00:12:00.378Z,2.58
2022-08-24T00:14:49.396Z,2.22
2022-08-24T00:17:39.411Z,2.38
2022-08-24T00:20:27.832Z,2.70
2022-08-24T00:23:16.836Z,2.50
2022-08-24T00:26:05.624Z,2.95
2022-08-24T00:28:53.795Z,3.00
2022-08-24T00:31:42.012Z,2.80
2022-08-24T00:34:32.554Z,3.30
2022-08-24T00:37:20.740Z,2.65
2022-08-24T00:40:15.311Z,2.65
2022-08-24T00:43:05.884Z,2.78
2022-08-24T00:46:08.347Z,2.50
2022-08-24T00:49:03.918Z,3.20
2022-08-24T00:52:01.420Z,2.60
2022-08-24T00:54:56.218Z,3.45
2022-08-24T00:57:47.359Z,2.72
2022-08-24T01:00:46.322Z,2.50
2022-08-24T01:03:38.416Z,3.00
2022-08-24T01:06:26.750Z,2.35
2022-08-24T01:09:16.573Z,2.50
2022-08-24T01:12:05.933Z,2.40
2022-08-24T01:14:54.377Z,2.22
2022-08-24T01:18:00.432Z,2.92
2022-08-24T01:20:57.233Z,2.58
2022-08-24T01:23:49.130Z,3.60
2022-08-24T01:26:41.211Z,2.90
2022-08-24T01:29:31.801Z,2.65
2022-08-24T01:32:21.057Z,3.22
2022-08-24T01:35:10.264Z,3.03
2022-08-24T01:38:02.250Z,3.35
2022-08-24T01:40:55.841Z,3.17
2022-08-24T01:43:44.040Z,3.33
2022-08-24T01:46:32.498Z,3.28
2022-08-24T01:49:22.889Z,3.20
2022-08-24T01:52:14.805Z,3.10
2022-08-24T01:55:03.047Z,3.42
2022-08-24T01:57:52.535Z,3.08
2022-08-24T02:00:41.063Z,2.97
2022-08-24T02:03:30.618Z,3.30
2022-08-24T02:06:19.991Z,2.90
2022-08-24T02:09:08.472Z,3.38
2022-08-24T02:11:56.714Z,3.33
2022-08-24T02:14:46.272Z,3.15
2022-08-24T02:17:34.689Z,3.10
2022-08-24T02:20:23.724Z,3.70
2022-08-24T02:23:11.969Z,3.28
2022-08-24T02:26:00.926Z,3.80
2022-08-24T02:28:49.099Z,3.63
2022-08-24T02:31:38.665Z,3.25
2022-08-24T02:34:27.072Z,3.60
2022-08-24T02:37:15.270Z,4.50
2022-08-24T02:40:04.560Z,3.60
2022-08-24T02:42:53.203Z,4.03
2022-08-24T02:45:43.870Z,3.83
2022-08-24T02:48:35.723Z,3.65
2022-08-24T02:51:26.578Z,4.22
2022-08-24T02:54:18.518Z,3.90
2022-08-24T02:57:07.005Z,3.60
2022-08-24T02:59:55.156Z,3.72
2022-08-24T03:02:43.438Z,3.58
2022-08-24T03:05:32.979Z,3.47
2022-08-24T03:08:21.203Z,3.63
2022-08-24T03:11:09.498Z,3.63
2022-08-24T03:13:58.921Z,3.55
2022-08-24T03:16:47.085Z,3.55
2022-08-24T03:19:35.303Z,3.95
2022-08-24T03:22:25.053Z,3.63
2022-08-24T03:25:15.243Z,4.50
2022-08-24T03:28:03.796Z,5.18
2022-08-24T03:30:59.296Z,5.32
2022-08-24T03:33:47.772Z,5.05
2022-08-24T03:36:35.960Z,5.45
2022-08-24T03:39:25.488Z,4.82
2022-08-24T03:42:13.642Z,5.25
2022-08-24T03:45:01.915Z,5.57
2022-08-24T03:47:50.153Z,5.70
2022-08-24T03:50:38.310Z,4.95
2022-08-24T03:53:26.533Z,5.90
2022-08-24T03:56:16.970Z,5.05
2022-08-24T03:59:05.468Z,4.68
2022-08-24T04:01:56.048Z,4.70
2022-08-24T04:04:44.416Z,4.90
2022-08-24T04:07:32.717Z,4.63
2022-08-24T04:10:21.306Z,4.57
2022-08-24T04:13:10.818Z,4.80
2022-08-24T04:15:59.362Z,4.85
2022-08-24T04:18:48.130Z,4.75
2022-08-24T04:21:38.434Z,4.72
2022-08-24T04:24:27.257Z,5.05
2022-08-24T04:27:15.450Z,5.65
2022-08-24T04:30:06.134Z,6.15
2022-08-24T04:32:54.355Z,5.82
2022-08-24T04:35:47.614Z,5.38
2022-08-24T04:38:36.557Z,6.35
2022-08-24T04:41:26.889Z,5.60
2022-08-24T04:44:20.210Z,5.50
2022-08-24T04:47:09.749Z,5.25
2022-08-24T04:49:57.905Z,5.05
2022-08-24T04:52:46.069Z,5.30
2022-08-24T04:55:44.922Z,5.67
2022-08-24T04:58:33.076Z,5.70
2022-08-24T05:01:23.258Z,5.78
2022-08-24T05:04:12.828Z,6.38
2022-08-24T05:07:00.987Z,5.55
2022-08-24T05:09:49.142Z,6.50
2022-08-24T05:12:40.982Z,7.38
2022-08-24T05:15:29.485Z,7.15
2022-08-24T05:18:18.753Z,7.38
2022-08-24T05:21:09.631Z,6.53
2022-08-24T05:23:57.919Z,6.93
2022-08-24T05:26:46.230Z,6.90
2022-08-24T05:29:35.461Z,7.15
2022-08-24T05:32:24.087Z,7.20
2022-08-24T05:35:12.650Z,7.00
2022-08-24T05:38:02.185Z,7.18
2022-08-24T05:40:50.607Z,7.45
2022-08-24T05:43:39.551Z,7.28
2022-08-24T05:46:28.057Z,7.75
2022-08-24T05:49:16.913Z,7.32
2022-08-24T05:52:05.522Z,7.30
2022-08-24T05:54:56.537Z,7.25
2022-08-24T05:57:45.540Z,6.45
2022-08-24T06:00:33.826Z,7.30
2022-08-24T06:03:22.023Z,8.00
2022-08-24T06:06:12.093Z,8.18
2022-08-24T06:09:01.576Z,7.25
2022-08-24T06:11:51.069Z,8.00
2022-08-24T06:14:39.494Z,8.30
2022-08-24T06:17:27.700Z,7.88
2022-08-24T06:20:16.097Z,7.45
2022-08-24T06:23:04.365Z,7.30
2022-08-24T06:26:14.773Z,7.47
2022-08-24T06:29:05.919Z,7.50
2022-08-24T06:31:56.162Z,7.97
2022-08-24T06:34:44.511Z,7.63
2022-08-24T06:37:32.799Z,8.40
2022-08-24T06:40:21.283Z,8.35
2022-08-24T06:43:09.520Z,8.43
2022-08-24T06:45:59.301Z,7.63
2022-08-24T06:48:47.540Z,8.02
2022-08-24T06:51:35.899Z,7.80
2022-08-24T06:54:24.075Z,7.75
2022-08-24T06:57:12.249Z,8.10
2022-08-24T07:00:00.444Z,6.97
2022-08-24T07:02:50.179Z,7.80
2022-08-24T07:05:39.113Z,7.53
2022-08-24T07:08:28.114Z,7.13
2022-08-24T07:11:18.549Z,7.15
2022-08-24T07:14:06.969Z,6.88
2022-08-24T07:16:55.514Z,6.50
2022-08-24T07:19:45.933Z,6.40
2022-08-24T07:22:34.127Z,6.65
2022-08-24T07:25:22.508Z,6.60
2022-08-24T07:28:14.704Z,6.30
2022-08-24T07:31:03.620Z,5.97
2022-08-24T07:33:51.901Z,6.82
2022-08-24T07:36:44.532Z,6.47
2022-08-24T07:39:32.972Z,5.88
2022-08-24T07:42:31.090Z,6.13
2022-08-24T07:45:20.524Z,6.75
2022-08-24T07:48:11.632Z,5.78
2022-08-24T07:51:08.438Z,6.53
2022-08-24T07:53:57.963Z,6.20
2022-08-24T07:56:46.186Z,5.65
2022-08-24T07:59:34.678Z,5.53
2022-08-24T08:02:22.924Z,5.82
2022-08-24T08:05:14.481Z,6.43
2022-08-24T08:08:02.841Z,6.20
2022-08-24T08:10:52.921Z,6.53
2022-08-24T08:16:30.304Z,6.20
2022-08-24T08:19:18.548Z,6.40
2022-08-24T08:22:24.539Z,5.60
2022-08-24T08:25:13.052Z,5.30
2022-08-24T08:28:08.080Z,5.63
2022-08-24T08:31:07.196Z,5.40
2022-08-24T08:33:55.595Z,5.53
2022-08-24T08:36:44.667Z,5.22
2022-08-24T08:39:33.407Z,5.13
2022-08-24T08:42:48.499Z,5.07
2022-08-24T08:45:55.474Z,5.05
2022-08-24T08:49:19.630Z,4.35
2022-08-24T08:52:27.335Z,4.28
2022-08-24T08:55:29.366Z,4.03
2022-08-24T08:58:34.969Z,4.28
2022-08-24T09:01:33.018Z,4.30
2022-08-24T09:04:37.942Z,3.83
2022-08-24T09:07:39.653Z,3.60
2022-08-24T09:10:52.691Z,3.85
2022-08-24T09:13:59.619Z,3.90
2022-08-24T09:17:02.815Z,4.15
2022-08-24T09:20:07.983Z,3.53
2022-08-24T09:23:08.795Z,3.60
2022-08-24T09:26:04.166Z,3.15
2022-08-24T09:29:01.980Z,3.10
2022-08-24T09:32:01.644Z,2.60
2022-08-24T09:34:59.709Z,3.33
2022-08-24T09:38:00.680Z,3.40
2022-08-24T09:41:17.356Z,3.15
2022-08-24T09:44:50.653Z,3.38
2022-08-24T09:47:57.952Z,3.63
2022-08-24T09:51:31.184Z,2.90
2022-08-24T09:54:55.100Z,2.78
2022-08-24T09:58:00.978Z,3.42
2022-08-24T10:00:56.849Z,2.90
2022-08-24T10:04:05.771Z,2.72
2022-08-24T10:07:04.344Z,3.00
2022-08-24T10:10:14.053Z,2.80
2022-08-24T10:13:14.077Z,2.67
2022-08-24T10:16:17.119Z,2.75
2022-08-24T10:19:27.318Z,2.58
2022-08-24T10:22:25.429Z,2.55
2022-08-24T10:25:30.431Z,1.90
2022-08-24T10:28:43.869Z,1.95
2022-08-24T10:31:41.307Z,2.55
2022-08-24T10:34:47.572Z,2.45
2022-08-24T10:38:13.512Z,2.40
2022-08-24T10:41:44.016Z,2.33
2022-08-24T10:47:31.015Z,2.80
2022-08-24T10:53:26.583Z,2.15
2022-08-24T10:56:17.330Z,2.47
2022-08-24T10:59:18.547Z,2.30
2022-08-24T11:02:12.942Z,2.33
2022-08-24T11:05:03.572Z,2.40
2022-08-24T11:08:01.742Z,2.30
2022-08-24T11:11:07.775Z,2.33
2022-08-24T11:14:00.287Z,2.00
2022-08-24T11:16:49.015Z,1.75
2022-08-24T11:19:37.317Z,2.78
2022-08-24T11:22:31.598Z,2.25
2022-08-24T11:25:26.652Z,2.22
2022-08-24T11:28:22.006Z,2.28
2022-08-24T11:31:13.686Z,2.40
2022-08-24T11:34:04.784Z,3.00
2022-08-24T11:36:52.991Z,2.15
2022-08-24T11:39:41.195Z,2.40
2022-08-24T11:42:43.307Z,2.00
2022-08-24T11:45:37.734Z,2.30
2022-08-24T11:48:37.417Z,2.55
2022-08-24T11:51:36.578Z,2.25
2022-08-24T11:54:33.271Z,1.80
2022-08-24T11:57:26.742Z,2.33
2022-08-24T12:00:20.195Z,2.08
2022-08-24T12:03:29.109Z,2.10
2022-08-24T12:06:32.250Z,2.00
2022-08-24T12:09:31.313Z,1.90
2022-08-24T12:12:26.302Z,1.83
2022-08-24T12:15:21.455Z,1.88
2022-08-24T12:18:23.234Z,2.00
2022-08-24T12:21:14.340Z,1.80
2022-08-24T12:24:08.839Z,1.98
2022-08-24T12:27:03.719Z,1.90
2022-08-24T12:29:58.582Z,2.15
2022-08-24T12:32:53.735Z,1.90
2022-08-24T12:35:46.708Z,1.52
2022-08-24T12:38:39.572Z,1.40
2022-08-24T12:41:33.024Z,1.10
2022-08-24T12:44:26.159Z,1.30
2022-08-24T12:47:22.106Z,1.30
2022-08-24T12:50:24.968Z,1.45
2022-08-24T12:53:50.312Z,1.35
2022-08-24T12:57:14.116Z,1.30
2022-08-24T13:00:08.423Z,1.40
2022-08-24T13:03:01.392Z,1.20
2022-08-24T13:05:56.019Z,1.52
2022-08-24T13:08:47.022Z,1.38
2022-08-24T13:11:37.951Z,1.75
2022-08-24T13:14:27.751Z,1.45
2022-08-24T13:17:19.494Z,1.67
2022-08-24T13:20:21.658Z,1.77
2022-08-24T13:23:18.732Z,1.55
2022-08-24T13:26:24.553Z,1.60
2022-08-24T13:29:16.853Z,1.80
2022-08-24T13:32:08.112Z,1.50
2022-08-24T13:34:59.159Z,1.40
2022-08-24T13:38:40.954Z,1.77
2022-08-24T13:41:48.616Z,1.98
2022-08-24T13:45:01.237Z,1.88
2022-08-24T13:47:59.929Z,2.00
2022-08-24T13:51:14.065Z,2.55
2022-08-24T13:54:25.166Z,2.15
2022-08-24T13:57:32.539Z,2.17
2022-08-24T14:00:48.575Z,2.30
2022-08-24T14:03:56.896Z,2.20
2022-08-24T14:06:55.289Z,2.38
2022-08-24T14:09:56.413Z,3.10
2022-08-24T14:12:56.850Z,2.60
2022-08-24T14:16:12.820Z,2.00
2022-08-24T14:19:11.509Z,2.30
2022-08-24T14:22:07.428Z,2.80
2022-08-24T14:25:14.638Z,2.58
2022-08-24T14:28:39.467Z,2.35
2022-08-24T14:31:29.658Z,2.50
2022-08-24T14:34:29.020Z,2.92
2022-08-24T14:37:23.610Z,3.00
2022-08-24T14:40:21.713Z,2.80
2022-08-24T14:43:30.096Z,3.03
2022-08-24T14:46:29.322Z,2.78
2022-08-24T14:49:29.926Z,3.15
2022-08-24T14:52:46.462Z,2.42
2022-08-24T14:55:43.238Z,2.70
2022-08-24T14:58:43.684Z,2.75
2022-08-24T15:01:44.995Z,2.53
2022-08-24T15:04:43.751Z,2.65
2022-08-24T15:07:34.511Z,2.80
2022-08-24T15:10:26.412Z,2.80
2022-08-24T15:13:27.680Z,2.88
2022-08-24T15:16:22.096Z,2.70
2022-08-24T15:19:22.981Z,3.28
2022-08-24T15:22:26.978Z,3.03
2022-08-24T15:25:20.733Z,2.60
2022-08-24T15:28:11.714Z,3.25
2022-08-24T15:31:03.795Z,3.33
2022-08-24T15:33:55.683Z,2.90
2022-08-24T15:36:59.415Z,3.00
2022-08-24T15:39:47.643Z,3.35
2022-08-24T15:42:37.783Z,3.10
2022-08-24T15:45:26.392Z,3.20
2022-08-24T15:48:17.478Z,2.63
2022-08-24T15:51:07.107Z,2.65
2022-08-24T15:56:48.545Z,2.72
2022-08-24T15:59:48.547Z,3.30
2022-08-24T16:02:38.773Z,3.15
2022-08-24T16:05:38.254Z,3.08
2022-08-24T16:08:26.503Z,3.47
2022-08-24T16:11:30.134Z,3.10
2022-08-24T16:14:28.467Z,2.92
2022-08-24T16:17:27.520Z,2.90
2022-08-24T16:20:31.669Z,2.78
2022-08-24T16:23:26.796Z,2.92
2022-08-24T16:26:26.760Z,2.70
2022-08-24T16:29:50.355Z,2.92
2022-08-24T16:32:54.391Z,2.70
2022-08-24T16:35:42.572Z,2.70
2022-08-24T16:38:33.903Z,2.40
2022-08-24T16:41:25.356Z,2.55
2022-08-24T16:44:13.875Z,2.60
2022-08-24T16:47:02.300Z,3.28
2022-08-24T16:49:51.435Z,2.40
2022-08-24T16:52:39.647Z,2.42
2022-08-24T16:55:28.620Z,2.78
2022-08-24T16:58:18.968Z,2.40
2022-08-24T17:01:07.392Z,2.15
2022-08-24T17:03:55.674Z,2.35
2022-08-24T17:06:44.152Z,2.45
2022-08-24T17:09:32.637Z,2.58
2022-08-24T17:12:21.642Z,3.00
2022-08-24T17:15:13.353Z,2.80
2022-08-24T17:18:05.785Z,2.45
2022-08-24T17:20:54.189Z,2.65
2022-08-24T17:23:43.366Z,2.80
2022-08-24T17:26:32.390Z,3.03
2022-08-24T17:29:21.227Z,2.65
2022-08-24T17:32:10.962Z,3.00
2022-08-24T17:34:59.342Z,3.22
2022-08-24T17:37:48.051Z,3.45
2022-08-24T17:40:36.284Z,3.00
2022-08-24T17:43:24.910Z,3.47
2022-08-24T17:46:15.253Z,2.85
2022-08-24T17:49:05.002Z,3.40
2022-08-24T17:51:53.695Z,3.35
2022-08-24T17:54:41.870Z,3.85
2022-08-24T17:57:30.029Z,3.58
2022-08-24T18:00:18.699Z,3.95
2022-08-24T18:03:06.903Z,4.05
2022-08-24T18:05:56.447Z,4.80
2022-08-24T18:08:44.891Z,4.18
2022-08-24T18:11:33.371Z,3.95
2022-08-24T18:14:21.594Z,3.67
2022-08-24T18:17:12.390Z,3.50
2022-08-24T18:20:00.660Z,3.83
2022-08-24T18:22:50.675Z,3.75
2022-08-24T18:25:47.283Z,3.85
2022-08-24T18:28:37.050Z,4.15
2022-08-24T18:31:27.610Z,3.70
2022-08-24T18:34:21.007Z,3.90
2022-08-24T18:37:09.496Z,4.28
2022-08-24T18:39:59.181Z,4.28
2022-08-24T18:42:48.358Z,3.92
2022-08-24T18:45:37.110Z,4.72
2022-08-24T18:48:25.556Z,4.93
2022-08-24T18:51:16.750Z,4.20
2022-08-24T18:54:08.154Z,4.13
2022-08-24T18:56:58.111Z,4.22
2022-08-24T18:59:46.540Z,4.38
2022-08-24T19:02:36.359Z,4.70
2022-08-24T19:05:25.700Z,4.60
2022-08-24T19:08:14.066Z,4.28
2022-08-24T19:11:02.276Z,4.90
2022-08-24T19:13:51.809Z,5.15
2022-08-24T19:16:40.502Z,5.00
2022-08-24T19:19:28.699Z,4.93
2022-08-24T19:22:18.123Z,5.07
2022-08-24T19:25:07.080Z,5.15
2022-08-24T19:27:55.939Z,5.53
2022-08-24T19:30:46.830Z,4.70
2022-08-24T19:33:38.098Z,4.90
2022-08-24T19:36:26.739Z,4.95
2022-08-24T19:39:14.927Z,4.90
2022-08-24T19:42:04.790Z,4.97
2022-08-24T19:45:10.461Z,5.32
2022-08-24T19:48:00.218Z,5.43
2022-08-24T19:50:48.424Z,5.07
2022-08-24T19:53:38.313Z,5.70
2022-08-24T19:56:26.454Z,4.97
2022-08-24T19:59:21.899Z,5.18
2022-08-24T20:02:10.105Z,4.75
2022-08-24T20:04:59.655Z,5.15
2022-08-24T20:07:48.237Z,5.40
2022-08-24T20:10:36.503Z,5.20
2022-08-24T20:13:24.665Z,4.95
2022-08-24T20:16:16.560Z,5.35
2022-08-24T20:19:05.382Z,5.45
2022-08-24T20:21:54.928Z,5.43
2022-08-24T20:24:43.596Z,5.45
2022-08-24T20:27:32.001Z,5.65
2022-08-24T20:30:20.561Z,5.40
2022-08-24T20:33:15.195Z,5.90
2022-08-24T20:36:03.836Z,5.43
2022-08-24T20:38:56.567Z,5.35
2022-08-24T20:41:45.539Z,5.63
2022-08-24T20:44:33.755Z,6.00
2022-08-24T20:47:22.850Z,6.38
2022-08-24T20:50:11.282Z,6.68
2022-08-24T20:53:00.049Z,6.50
2022-08-24T20:55:50.010Z,6.30
2022-08-24T20:58:39.282Z,6.18
2022-08-24T21:01:27.465Z,6.53
2022-08-24T21:04:15.787Z,5.95
2022-08-24T21:07:04.410Z,6.43
2022-08-24T21:09:52.773Z,6.22
2022-08-24T21:12:44.097Z,5.80
2022-08-24T21:15:32.533Z,5.82
2022-08-24T21:18:20.940Z,6.50
2022-08-24T21:21:09.715Z,6.45
2022-08-24T21:23:57.909Z,6.47
2022-08-24T21:26:46.523Z,6.85
2022-08-24T21:29:36.065Z,5.70
2022-08-24T21:32:41.715Z,6.75
2022-08-24T21:35:29.994Z,6.65
2022-08-24T21:38:18.164Z,6.00
2022-08-24T21:41:07.202Z,6.88
2022-08-24T21:43:55.370Z,6.50
2022-08-24T21:46:45.397Z,6.32
2022-08-24T21:49:34.099Z,6.82
2022-08-24T21:52:22.495Z,6.40
2022-08-24T21:55:14.971Z,7.22
2022-08-24T21:58:03.525Z,6.10
2022-08-24T22:00:52.202Z,6.43
2022-08-24T22:03:41.885Z,7.55
2022-08-24T22:06:31.688Z,6.72
2022-08-24T22:09:20.467Z,6.63
2022-08-24T22:12:08.995Z,6.50
2022-08-24T22:14:57.181Z,6.78
2022-08-24T22:17:46.054Z,6.78
2022-08-24T22:20:42.051Z,6.60
2022-08-24T22:23:30.240Z,6.90
2022-08-24T22:26:18.809Z,6.28
2022-08-24T22:29:09.875Z,6.53
2022-08-24T22:31:58.067Z,6.78
2022-08-24T22:34:46.245Z,6.07
2022-08-24T22:37:36.413Z,7.05
2022-08-24T22:40:24.672Z,6.80
2022-08-24T22:43:13.409Z,6.85
2022-08-24T22:46:01.609Z,6.78
2022-08-24T22:48:50.257Z,6.90
2022-08-24T22:51:38.800Z,6.75
2022-08-24T22:54:29.620Z,7.63
2022-08-24T23:00:09.548Z,7.20
2022-08-24T23:02:59.390Z,7.88
2022-08-24T23:05:47.628Z,7.63
2022-08-24T23:08:35.778Z,6.97
2022-08-24T23:11:27.064Z,6.82
2022-08-24T23:14:16.174Z,6.75
2022-08-24T23:17:05.396Z,7.25
2022-08-24T23:20:01.980Z,7.80
2022-08-24T23:22:50.668Z,7.70
2022-08-24T23:25:38.823Z,7.93
2022-08-24T23:28:29.847Z,8.15
2022-08-24T23:31:19.962Z,7.70
2022-08-24T23:34:08.922Z,8.02
2022-08-24T23:36:57.281Z,8.48
2022-08-24T23:39:45.887Z,7.80
2022-08-24T23:42:34.060Z,8.00
2022-08-24T23:45:28.153Z,8.07
2022-08-24T23:48:16.818Z,7.82
2022-08-24T23:51:05.245Z,8.68
2022-08-24T23:53:54.455Z,9.07
2022-08-24T23:56:45.506Z,8.35
2022-08-24T23:59:33.635Z,8.63
